Stillwater, OH (44679)

9:20 AM EDT on September 02, 2015 (GMT -0400)
Clever | | Change Station
CLOSE
Current Station
Airport
Location: New Philadelphia,
Elevation: 892 ft
Nearby Weather Stations

Elev 892 ft 40.47 °N, 81.42 °W | Updated 27 minutes ago

Partly Cloudy
Partly Cloudy
72 °F
Feels Like 72 °F
N
0
Wind Variable Wind from North

Today
High -- | Low -- °F
--% Chance of Precip.
Yesterday
High -- | Low -- °F
Precip. -- in
6:53 AM 7:55 PM
Waning Gibbous, 80% visible
Pressure 30.12 in
Visibility 4.0 miles
Clouds Clear
Dew Point 69 °F
Humidity 91%
Rainfall 0.00 in
Snow Depth Not available.
UV 2 out of 12
Pollen 10.40 out of 12
Air Quality Not available.
Flu Activity Not available.
METAR KPHD 021253Z AUTO 00000KT 4SM BR CLR 22/21 A3013 RMK AO2 SLP197 T02220206
Pressure 30.12 in
Visibility 4.0 miles
Clouds Clear
Dew Point 69 °F
Humidity 91%
Rainfall 0.00 in
Snow Depth Not available.
UV 2 out of 12
Pollen 10.40 out of 12
Air Quality Not available.
Flu Activity Not available.
METAR KPHD 021253Z AUTO 00000KT 4SM BR CLR 22/21 A3013 RMK AO2 SLP197 T02220206

10-Day Weather Forecast

×

Almanac

Astronomy

Sep. 02, 2015 Rise Set
Actual Time
Civil Twilight
Nautical Twilight
Astronomical Twilight
Moon
Length of Visible Light
Length of Day
Tomorrow will be .
, % of the Moon is Illuminated

Today's Extremes

State Highs State Lows

Community

WunderPhotos

Upload Photos

1,851,750 photos uploaded!

WunderBlogs® & News

Nearby

Air Quality

  Air Quality AQ Index Pollutant
Not available.

Snow Depth

Station Depth Elevation

Earthquake Activity

City Distance Mag. Time & Date
Minimum magnitude displayed is 2.5.

Coastal Water Temperatures

Place Temperature

Stations

Nearby Weather Stations

Station Location Temp. Windchill Dew Point Humidity Wind Precip. Elev Updated Type